Time;durP1;ratioP1;P1;durP2;ratioP2;P2;SDS_P1;SDS_P2;PMS_P1;PMS_P2;Temp;Humidity;BMP_temperature;BMP_pressure;BME280_temperature;BME280_humidity;BME280_pressure;Samples;Min_cycle;Max_cycle;Signal;HPM_P1;HPM_P2
2023/03/30 00:03:01;;;;;;;22.05;10.40;;;;;;;;;;8329110;28;20047;-80
2023/03/30 00:07:04;;;;;;;34.58;12.45;;;;;;;;;;8329429;28;20049;-81
2023/03/30 00:11:12;;;;;;;16.23;8.30;;;;;;;;;;8329015;28;20401;-79
2023/03/30 00:15:16;;;;;;;20.77;7.85;;;;;;;;;;8329259;28;20141;-83
2023/03/30 00:19:20;;;;;;;19.20;8.70;;;;;;;;;;8328468;28;20103;-79
2023/03/30 00:23:23;;;;;;;20.60;9.73;;;;;;;;;;8328635;28;20499;-79
2023/03/30 00:27:27;;;;;;;24.80;9.60;;;;;;;;;;8323384;28;20058;-84
2023/03/30 00:31:30;;;;;;;21.13;10.15;;;;;;;;;;8305388;28;20053;-86
2023/03/30 00:35:33;;;;;;;19.25;8.43;;;;;;;;;;8315708;28;20438;-79
2023/03/30 00:39:36;;;;;;;29.90;10.15;;;;;;;;;;8328515;28;20049;-79
2023/03/30 00:44:01;;;;;;;21.40;9.43;;;;;;;;;;8311321;28;20048;-84
2023/03/30 00:48:07;;;;;;;21.10;9.73;;;;;;;;;;8325408;28;20530;-78
2023/03/30 00:52:11;;;;;;;18.15;8.77;;;;;;;;;;8319089;28;20057;-88
2023/03/30 00:56:17;;;;;;;20.98;9.45;;;;;;;;;;8328369;28;20421;-81
2023/03/30 01:00:22;;;;;;;19.50;8.70;;;;;;;;;;8333240;28;20053;-79
2023/03/30 01:04:27;;;;;;;23.25;9.60;;;;;;;;;;8314146;28;20046;-85
2023/03/30 01:08:31;;;;;;;18.52;9.18;;;;;;;;;;8327896;28;20037;-83
2023/03/30 01:12:34;;;;;;;23.50;9.45;;;;;;;;;;8325524;28;20057;-85
2023/03/30 01:16:46;;;;;;;20.23;8.70;;;;;;;;;;8333597;28;20049;-83
2023/03/30 01:21:13;;;;;;;;;;;;;;;;;;8334786;28;20500;-79
2023/03/30 01:25:59;;;;;;;20.50;9.07;;;;;;;;;;8322870;28;20008;-79
2023/03/30 01:30:17;;;;;;;19.77;9.65;;;;;;;;;;8209700;28;20070;-82
2023/03/30 01:35:04;;;;;;;21.77;9.13;;;;;;;;;;8284157;28;20053;-79
2023/03/30 01:39:26;;;;;;;20.40;9.13;;;;;;;;;;8264380;28;20066;-87
2023/03/30 01:43:36;;;;;;;19.50;9.60;;;;;;;;;;8328876;28;20421;-81
2023/03/30 01:47:42;;;;;;;18.33;9.27;;;;;;;;;;8332503;28;20501;-85
2023/03/30 01:51:51;;;;;;;24.33;10.50;;;;;;;;;;8301573;28;20467;-80
2023/03/30 01:56:00;;;;;;;16.77;8.55;;;;;;;;;;8309702;28;20516;-81
2023/03/30 02:00:13;;;;;;;20.33;9.60;;;;;;;;;;8332460;28;20041;-79
2023/03/30 02:04:19;;;;;;;23.80;10.00;;;;;;;;;;8332589;28;20084;-80
2023/03/30 02:08:24;;;;;;;18.77;9.15;;;;;;;;;;8323156;28;20056;-79
2023/03/30 02:12:30;;;;;;;20.88;10.00;;;;;;;;;;8329123;28;20500;-79
2023/03/30 02:16:36;;;;;;;20.92;9.45;;;;;;;;;;8325292;28;20383;-83
2023/03/30 02:20:39;;;;;;;18.88;9.75;;;;;;;;;;8331503;28;20045;-79
2023/03/30 02:24:43;;;;;;;18.95;8.52;;;;;;;;;;8318206;28;20065;-83
2023/03/30 02:28:48;;;;;;;16.58;9.60;;;;;;;;;;8331918;28;20045;-78
2023/03/30 02:32:55;;;;;;;24.30;10.50;;;;;;;;;;8331550;28;20045;-79
2023/03/30 02:37:18;;;;;;;19.38;9.35;;;;;;;;;;8331426;28;20053;-78
2023/03/30 02:41:34;;;;;;;23.52;10.13;;;;;;;;;;8331833;28;20042;-80
2023/03/30 02:45:50;;;;;;;17.45;8.43;;;;;;;;;;8331581;28;20128;-88
2023/03/30 02:49:58;;;;;;;26.50;9.30;;;;;;;;;;8330739;28;20047;-78
2023/03/30 02:54:09;;;;;;;21.25;9.25;;;;;;;;;;8330813;28;20148;-78
2023/03/30 02:58:17;;;;;;;20.40;9.43;;;;;;;;;;8330515;28;20049;-79
2023/03/30 03:02:27;;;;;;;72.20;26.20;;;;;;;;;;8331153;28;20076;-84
2023/03/30 03:06:31;;;;;;;26.02;13.07;;;;;;;;;;8331321;28;20406;-78
2023/03/30 03:10:35;;;;;;;26.35;9.80;;;;;;;;;;8330453;28;20383;-82
2023/03/30 03:14:39;;;;;;;22.65;10.23;;;;;;;;;;8330376;28;20053;-87
2023/03/30 03:18:43;;;;;;;26.33;10.48;;;;;;;;;;8330183;28;20057;-81
2023/03/30 03:22:46;;;;;;;25.45;12.00;;;;;;;;;;8329180;28;20045;-78
2023/03/30 03:26:49;;;;;;;23.42;10.70;;;;;;;;;;8330153;28;20049;-79
2023/03/30 03:30:53;;;;;;;21.02;11.45;;;;;;;;;;8330076;28;20057;-77
2023/03/30 03:34:57;;;;;;;21.63;10.75;;;;;;;;;;8329095;28;20041;-79
2023/03/30 03:39:00;;;;;;;23.05;10.98;;;;;;;;;;8330072;28;20052;-78
2023/03/30 03:43:02;;;;;;;13.80;6.65;;;;;;;;;;8329101;28;20049;-80
2023/03/30 03:47:05;;;;;;;22.98;10.85;;;;;;;;;;8329816;28;20564;-79
2023/03/30 03:51:10;;;;;;;24.73;11.20;;;;;;;;;;8328905;28;20120;-85
2023/03/30 03:55:13;;;;;;;24.17;10.45;;;;;;;;;;8329295;28;20553;-79
2023/03/30 03:59:16;;;;;;;16.85;9.85;;;;;;;;;;8328702;28;20046;-78
2023/03/30 04:03:19;;;;;;;19.65;9.82;;;;;;;;;;8329479;28;20041;-84
2023/03/30 04:07:24;;;;;;;18.38;9.50;;;;;;;;;;8328880;28;20053;-81
2023/03/30 04:11:27;;;;;;;20.60;10.00;;;;;;;;;;8329186;28;20045;-79
2023/03/30 04:15:29;;;;;;;21.67;10.32;;;;;;;;;;8328965;28;20046;-80
2023/03/30 04:19:32;;;;;;;20.60;8.98;;;;;;;;;;8328829;28;20050;-83
2023/03/30 04:23:38;;;;;;;19.08;9.95;;;;;;;;;;8328595;28;20049;-80
2023/03/30 04:27:42;;;;;;;19.77;9.27;;;;;;;;;;8328710;28;20090;-80
2023/03/30 04:31:46;;;;;;;13.75;6.25;;;;;;;;;;8329508;28;20041;-78
2023/03/30 04:35:49;;;;;;;19.58;10.40;;;;;;;;;;8335030;28;20057;-80
2023/03/30 04:39:56;;;;;;;21.80;10.55;;;;;;;;;;8335007;28;20050;-86
2023/03/30 04:44:01;;;;;;;21.13;9.80;;;;;;;;;;8334837;28;20745;-78
2023/03/30 04:48:04;;;;;;;22.52;10.20;;;;;;;;;;8334910;28;20049;-78
2023/03/30 04:52:07;;;;;;;24.40;9.32;;;;;;;;;;8335342;28;20474;-78
2023/03/30 04:56:11;;;;;;;24.08;11.15;;;;;;;;;;8334246;28;20402;-84
2023/03/30 05:00:16;;;;;;;47.70;17.80;;;;;;;;;;8334157;28;20041;-88
2023/03/30 05:04:19;;;;;;;20.08;9.57;;;;;;;;;;8333771;28;20132;-79
2023/03/30 05:08:23;;;;;;;17.90;8.90;;;;;;;;;;8334062;28;20053;-79
2023/03/30 05:12:28;;;;;;;22.25;11.05;;;;;;;;;;8333965;28;20083;-88
2023/03/30 05:16:31;;;;;;;17.65;9.27;;;;;;;;;;8334411;28;20124;-79
2023/03/30 05:20:34;;;;;;;27.08;14.65;;;;;;;;;;8333989;28;20060;-81
2023/03/30 05:24:36;;;;;;;23.95;11.90;;;;;;;;;;8334113;28;20045;-80
2023/03/30 05:28:41;;;;;;;13.98;7.10;;;;;;;;;;8332857;28;20052;-80
2023/03/30 05:32:44;;;;;;;15.75;8.65;;;;;;;;;;8334121;28;20052;-79
2023/03/30 05:36:47;;;;;;;16.45;7.80;;;;;;;;;;8332849;28;20057;-79
2023/03/30 05:40:52;;;;;;;20.02;8.70;;;;;;;;;;8333983;28;20083;-78
2023/03/30 05:44:57;;;;;;;27.10;12.68;;;;;;;;;;8333162;28;20057;-85
2023/03/30 05:49:00;;;;;;;23.02;11.20;;;;;;;;;;8333678;28;20045;-80
2023/03/30 05:53:03;;;;;;;19.17;9.10;;;;;;;;;;8333001;28;20045;-78
2023/03/30 05:57:06;;;;;;;19.38;8.73;;;;;;;;;;8333734;28;20053;-78
2023/03/30 06:01:11;;;;;;;21.85;8.93;;;;;;;;;;8333198;28;20068;-79
2023/03/30 06:05:14;;;;;;;19.70;9.88;;;;;;;;;;8332818;28;20048;-79
2023/03/30 06:09:16;;;;;;;23.48;12.05;;;;;;;;;;8332567;28;20049;-82
2023/03/30 06:13:19;;;;;;;23.23;10.88;;;;;;;;;;8332225;28;20084;-79
2023/03/30 06:17:24;;;;;;;29.40;11.48;;;;;;;;;;8332355;28;20501;-78
2023/03/30 06:21:27;;;;;;;45.35;15.90;;;;;;;;;;8331863;28;20049;-78
2023/03/30 06:25:30;;;;;;;25.50;11.27;;;;;;;;;;8331859;28;20515;-78
2023/03/30 06:29:33;;;;;;;88.65;26.08;;;;;;;;;;8331587;28;20544;-82
2023/03/30 06:33:38;;;;;;;24.80;10.23;;;;;;;;;;8331293;28;20136;-87
2023/03/30 06:37:41;;;;;;;48.08;15.13;;;;;;;;;;8331777;28;20490;-79
2023/03/30 06:41:44;;;;;;;22.00;9.75;;;;;;;;;;8331208;28;20076;-79
2023/03/30 06:45:51;;;;;;;24.88;10.57;;;;;;;;;;8331547;28;20045;-78
2023/03/30 06:49:55;;;;;;;21.70;10.73;;;;;;;;;;8331336;28;20046;-84
2023/03/30 06:53:58;;;;;;;19.27;9.20;;;;;;;;;;8330956;28;20123;-79
2023/03/30 06:58:01;;;;;;;17.10;7.72;;;;;;;;;;8329442;28;20048;-83
2023/03/30 07:02:05;;;;;;;14.45;7.20;;;;;;;;;;8330445;28;20053;-80
2023/03/30 07:06:11;;;;;;;15.50;6.93;;;;;;;;;;8330737;28;20048;-81
2023/03/30 07:10:14;;;;;;;15.13;7.07;;;;;;;;;;8330658;28;20054;-88
2023/03/30 07:14:20;;;;;;;16.67;7.18;;;;;;;;;;8330576;28;20045;-79
2023/03/30 07:18:23;;;;;;;13.25;7.05;;;;;;;;;;8330050;28;20076;-83
2023/03/30 07:22:27;;;;;;;14.65;5.60;;;;;;;;;;8329477;28;20037;-81
2023/03/30 07:26:31;;;;;;;11.10;6.28;;;;;;;;;;8330731;28;20048;-83
2023/03/30 07:30:34;;;;;;;10.18;4.57;;;;;;;;;;8329725;28;20102;-87
2023/03/30 07:34:37;;;;;;;19.25;8.30;;;;;;;;;;8330883;28;20075;-85
2023/03/30 07:38:42;;;;;;;15.05;6.22;;;;;;;;;;8329764;28;20517;-81
2023/03/30 07:42:46;;;;;;;14.13;7.22;;;;;;;;;;8330273;28;20099;-80
2023/03/30 07:46:48;;;;;;;14.38;6.30;;;;;;;;;;8328259;28;20072;-79
2023/03/30 07:50:59;;;;;;;13.32;6.78;;;;;;;;;;8329933;28;20049;-79
2023/03/30 07:55:03;;;;;;;13.02;6.30;;;;;;;;;;8329917;28;20137;-81
2023/03/30 07:59:07;;;;;;;10.00;5.47;;;;;;;;;;8330592;28;20069;-79
2023/03/30 08:03:10;;;;;;;14.80;5.93;;;;;;;;;;8330002;28;20054;-79
2023/03/30 08:07:13;;;;;;;12.57;6.70;;;;;;;;;;8329728;28;20056;-80
2023/03/30 08:11:17;;;;;;;12.90;6.53;;;;;;;;;;8330270;28;20509;-79
2023/03/30 08:15:20;;;;;;;16.33;6.50;;;;;;;;;;8330029;28;20049;-80
2023/03/30 08:19:27;;;;;;;10.02;5.82;;;;;;;;;;8329361;28;20470;-79
2023/03/30 08:23:30;;;;;;;13.25;6.50;;;;;;;;;;8329693;28;20405;-82
2023/03/30 08:27:35;;;;;;;13.73;6.88;;;;;;;;;;8329742;28;20436;-79
2023/03/30 08:31:37;;;;;;;10.55;5.80;;;;;;;;;;8329112;28;20132;-90
2023/03/30 08:35:41;;;;;;;13.98;5.97;;;;;;;;;;8328945;28;20084;-83
2023/03/30 08:39:44;;;;;;;10.80;5.65;;;;;;;;;;8329445;28;20076;-87
2023/03/30 08:43:57;;;;;;;10.63;5.90;;;;;;;;;;8329419;28;20099;-81
2023/03/30 08:48:01;;;;;;;14.50;6.28;;;;;;;;;;8329274;28;20122;-79
2023/03/30 08:52:05;;;;;;;12.45;5.63;;;;;;;;;;8328571;28;20436;-81
2023/03/30 08:56:14;;;;;;;10.77;5.32;;;;;;;;;;8329801;28;20588;-82
2023/03/30 09:00:27;;;;;;;10.45;5.40;;;;;;;;;;8329204;28;20103;-80
2023/03/30 09:04:42;;;;;;;11.25;5.88;;;;;;;;;;8328959;28;20499;-80
2023/03/30 09:08:47;;;;;;;12.20;5.75;;;;;;;;;;8329449;28;20057;-81
2023/03/30 09:12:53;;;;;;;6.72;3.65;;;;;;;;;;8328467;28;20129;-81
2023/03/30 09:17:06;;;;;;;16.48;7.65;;;;;;;;;;8329347;28;20140;-81
2023/03/30 09:21:11;;;;;;;9.43;5.22;;;;;;;;;;8333529;28;20041;-81
2023/03/30 09:25:20;;;;;;;12.15;5.85;;;;;;;;;;8334751;28;20061;-80
2023/03/30 09:29:26;;;;;;;13.07;5.85;;;;;;;;;;8335140;28;20049;-80
2023/03/30 09:33:42;;;;;;;10.50;4.75;;;;;;;;;;8334414;28;20111;-85
2023/03/30 09:37:45;;;;;;;14.15;6.38;;;;;;;;;;8334347;28;20053;-82
2023/03/30 09:41:59;;;;;;;12.77;5.43;;;;;;;;;;8334359;28;20490;-92
2023/03/30 09:46:06;;;;;;;8.07;4.57;;;;;;;;;;8334184;28;20073;-80
2023/03/30 09:50:16;;;;;;;8.18;4.40;;;;;;;;;;8321984;28;20045;-80
2023/03/30 09:54:20;;;;;;;8.40;4.53;;;;;;;;;;8333343;28;20052;-82
2023/03/30 09:58:28;;;;;;;5.93;3.50;;;;;;;;;;8332928;28;20124;-79
2023/03/30 10:02:32;;;;;;;8.95;4.53;;;;;;;;;;8331738;28;20132;-80
2023/03/30 10:06:39;;;;;;;8.05;4.30;;;;;;;;;;8322588;28;20055;-81
2023/03/30 10:10:42;;;;;;;7.82;4.45;;;;;;;;;;8333405;28;20045;-80
2023/03/30 10:14:46;;;;;;;10.77;4.40;;;;;;;;;;8332942;28;20067;-81
2023/03/30 10:18:54;;;;;;;9.55;4.72;;;;;;;;;;8333707;28;20041;-80
2023/03/30 10:23:02;;;;;;;7.35;4.13;;;;;;;;;;8310152;28;20204;-80
2023/03/30 10:27:11;;;;;;;9.27;4.63;;;;;;;;;;8295149;28;20042;-80
2023/03/30 10:31:16;;;;;;;8.30;4.30;;;;;;;;;;8307763;28;20046;-80
2023/03/30 10:35:21;;;;;;;7.53;3.88;;;;;;;;;;8307610;28;20517;-80
2023/03/30 10:39:30;;;;;;;6.88;3.20;;;;;;;;;;8294020;28;20071;-81
2023/03/30 10:43:35;;;;;;;5.85;3.45;;;;;;;;;;8294831;28;20034;-80
2023/03/30 10:47:52;;;;;;;6.93;3.50;;;;;;;;;;8294418;28;20050;-83
2023/03/30 10:52:06;;;;;;;6.72;3.55;;;;;;;;;;8294335;28;20050;-82
2023/03/30 10:56:20;;;;;;;5.75;3.55;;;;;;;;;;8294184;28;20061;-84
2023/03/30 11:00:33;;;;;;;11.63;5.10;;;;;;;;;;8294672;28;20072;-82
2023/03/30 11:04:40;;;;;;;8.82;3.38;;;;;;;;;;8302234;28;20049;-79
2023/03/30 11:08:47;;;;;;;6.72;3.00;;;;;;;;;;8294000;28;20049;-81
2023/03/30 11:12:57;;;;;;;7.95;3.70;;;;;;;;;;8298653;28;20062;-83
2023/03/30 11:17:06;;;;;;;5.22;3.30;;;;;;;;;;8290612;28;20096;-80
2023/03/30 11:21:16;;;;;;;7.53;3.60;;;;;;;;;;8293112;28;20104;-81
2023/03/30 11:25:24;;;;;;;8.27;4.22;;;;;;;;;;8292936;28;20088;-80
2023/03/30 11:29:36;;;;;;;8.68;3.72;;;;;;;;;;8297143;28;20050;-80
2023/03/30 11:33:43;;;;;;;7.35;4.28;;;;;;;;;;8292386;28;20413;-80
2023/03/30 11:37:51;;;;;;;6.78;3.38;;;;;;;;;;8279741;28;20062;-80
2023/03/30 11:42:02;;;;;;;7.15;3.67;;;;;;;;;;8305195;28;20391;-82
2023/03/30 11:46:11;;;;;;;9.05;4.25;;;;;;;;;;8292414;28;20065;-81
2023/03/30 11:50:26;;;;;;;9.90;3.95;;;;;;;;;;8292905;28;20553;-81
2023/03/30 11:54:55;;;;;;;7.38;4.40;;;;;;;;;;8292441;28;20056;-81
2023/03/30 11:59:04;;;;;;;7.43;4.53;;;;;;;;;;8288253;28;20046;-81
2023/03/30 12:03:21;;;;;;;7.00;3.78;;;;;;;;;;8291652;28;20053;-81
2023/03/30 12:07:32;;;;;;;6.57;4.38;;;;;;;;;;8291523;28;20065;-79
2023/03/30 12:11:41;;;;;;;4.57;2.67;;;;;;;;;;8285540;28;20125;-80
2023/03/30 12:15:52;;;;;;;9.98;3.75;;;;;;;;;;8292963;28;20050;-80
2023/03/30 12:20:03;;;;;;;7.53;4.40;;;;;;;;;;8305422;28;20097;-81
2023/03/30 12:24:14;;;;;;;11.65;4.18;;;;;;;;;;8279523;28;20117;-79
2023/03/30 12:28:19;;;;;;;11.90;4.40;;;;;;;;;;8292313;28;20049;-79
2023/03/30 12:32:25;;;;;;;7.20;3.47;;;;;;;;;;8292337;28;20056;-81
2023/03/30 12:36:39;;;;;;;11.20;4.85;;;;;;;;;;8291178;28;20065;-80
2023/03/30 12:40:46;;;;;;;8.38;4.75;;;;;;;;;;8291493;28;20730;-80
2023/03/30 12:45:04;;;;;;;9.05;4.75;;;;;;;;;;8291064;28;20046;-79
2023/03/30 12:49:16;;;;;;;11.07;4.85;;;;;;;;;;8284772;28;20107;-79
2023/03/30 12:53:43;;;;;;;9.43;4.10;;;;;;;;;;8293903;28;20049;-84
2023/03/30 12:58:01;;;;;;;8.90;4.22;;;;;;;;;;8297198;28;20053;-79
2023/03/30 13:02:24;;;;;;;9.00;5.38;;;;;;;;;;8303036;28;20045;-79
2023/03/30 13:06:32;;;;;;;8.93;4.75;;;;;;;;;;8285889;28;20493;-80
2023/03/30 13:10:42;;;;;;;8.88;4.13;;;;;;;;;;8305824;28;20061;-81
2023/03/30 13:14:46;;;;;;;11.98;5.05;;;;;;;;;;8298516;28;20053;-81
2023/03/30 13:18:54;;;;;;;7.13;4.20;;;;;;;;;;8298619;28;20113;-82
2023/03/30 13:23:05;;;;;;;8.98;4.95;;;;;;;;;;8298870;28;20077;-82
2023/03/30 13:27:24;;;;;;;8.23;4.57;;;;;;;;;;8309935;28;20078;-81
2023/03/30 13:32:03;;;;;;;8.27;4.70;;;;;;;;;;8298027;28;20316;-79
2023/03/30 13:36:13;;;;;;;7.68;3.95;;;;;;;;;;8310400;28;20625;-79
2023/03/30 13:40:19;;;;;;;9.07;4.78;;;;;;;;;;8297738;28;20145;-83
2023/03/30 13:44:39;;;;;;;9.52;4.80;;;;;;;;;;8304152;28;20049;-80
2023/03/30 13:48:56;;;;;;;9.13;4.88;;;;;;;;;;8296754;28;20678;-80
2023/03/30 13:53:02;;;;;;;9.95;4.95;;;;;;;;;;8302036;28;20045;-79
2023/03/30 13:57:10;;;;;;;11.20;4.80;;;;;;;;;;8283558;28;20076;-80
2023/03/30 14:01:20;;;;;;;8.95;4.80;;;;;;;;;;8295861;28;20088;-79
2023/03/30 14:05:26;;;;;;;8.35;4.53;;;;;;;;;;8303663;28;20096;-85
2023/03/30 14:09:29;;;;;;;11.23;6.63;;;;;;;;;;8296616;28;20188;-79
2023/03/30 14:13:32;;;;;;;48.45;20.52;;;;;;;;;;8295256;28;20085;-85
2023/03/30 14:17:37;;;;;;;14.25;5.57;;;;;;;;;;8309516;28;20133;-80
2023/03/30 14:21:45;;;;;;;8.65;4.70;;;;;;;;;;8309584;28;20057;-84
2023/03/30 14:25:50;;;;;;;8.20;4.82;;;;;;;;;;8304663;28;20144;-86
2023/03/30 14:29:55;;;;;;;12.45;4.43;;;;;;;;;;8316011;28;20052;-79
2023/03/30 14:34:00;;;;;;;10.52;4.57;;;;;;;;;;8308953;28;20050;-82
2023/03/30 14:38:04;;;;;;;7.70;3.92;;;;;;;;;;8295639;28;20074;-80
2023/03/30 14:42:14;;;;;;;7.57;4.63;;;;;;;;;;8295617;28;20049;-85
2023/03/30 14:46:17;;;;;;;12.35;5.65;;;;;;;;;;8295289;28;20105;-79
2023/03/30 14:50:23;;;;;;;14.30;7.25;;;;;;;;;;8307644;28;20549;-82
2023/03/30 14:54:26;;;;;;;10.75;6.05;;;;;;;;;;8304799;28;20061;-83
2023/03/30 14:58:36;;;;;;;10.55;5.85;;;;;;;;;;8290616;28;20042;-81
2023/03/30 15:02:41;;;;;;;21.25;13.48;;;;;;;;;;8286719;28;20050;-80
2023/03/30 15:06:47;;;;;;;16.70;11.05;;;;;;;;;;8293694;28;20135;-78
2023/03/30 15:10:53;;;;;;;16.17;11.68;;;;;;;;;;8295728;28;20057;-80
2023/03/30 15:14:59;;;;;;;12.10;8.43;;;;;;;;;;8284433;28;20124;-85
2023/03/30 15:19:05;;;;;;;12.43;7.65;;;;;;;;;;8286671;28;20050;-78
2023/03/30 15:23:12;;;;;;;9.68;5.28;;;;;;;;;;8292446;28;20530;-79
2023/03/30 15:27:17;;;;;;;10.45;4.68;;;;;;;;;;8297482;28;20048;-78
2023/03/30 15:31:20;;;;;;;10.07;5.13;;;;;;;;;;8289414;28;20042;-84
2023/03/30 15:35:28;;;;;;;7.60;4.35;;;;;;;;;;8289300;28;20466;-82
2023/03/30 15:39:35;;;;;;;32.05;20.98;;;;;;;;;;8286872;28;20049;-79
2023/03/30 15:43:56;;;;;;;18.75;15.52;;;;;;;;;;8291889;28;20085;-79
2023/03/30 15:47:59;;;;;;;19.35;11.38;;;;;;;;;;8287644;28;20406;-79
2023/03/30 15:52:12;;;;;;;11.57;6.35;;;;;;;;;;8293503;28;20060;-81
2023/03/30 15:56:22;;;;;;;13.05;10.52;;;;;;;;;;8284494;28;20065;-80
2023/03/30 16:00:28;;;;;;;41.70;37.50;;;;;;;;;;8292640;28;20058;-81
2023/03/30 16:04:32;;;;;;;23.38;16.17;;;;;;;;;;8291417;28;20042;-87
2023/03/30 16:08:40;;;;;;;37.30;25.45;;;;;;;;;;8293370;28;20513;-81
2023/03/30 16:12:46;;;;;;;43.55;31.67;;;;;;;;;;8291812;28;20045;-81
2023/03/30 16:16:49;;;;;;;14.65;10.00;;;;;;;;;;8288785;28;20100;-79
2023/03/30 16:20:52;;;;;;;16.02;11.45;;;;;;;;;;8298411;28;20085;-79
2023/03/30 16:24:55;;;;;;;21.15;12.65;;;;;;;;;;8272523;28;20058;-79
2023/03/30 16:29:00;;;;;;;30.13;21.05;;;;;;;;;;8294752;28;20058;-78
2023/03/30 16:33:03;;;;;;;22.38;8.10;;;;;;;;;;8295110;28;20542;-79
2023/03/30 16:37:06;;;;;;;24.13;18.55;;;;;;;;;;8299588;28;20062;-80
2023/03/30 16:41:12;;;;;;;20.27;10.73;;;;;;;;;;8292938;28;20550;-79
2023/03/30 16:45:17;;;;;;;18.67;10.20;;;;;;;;;;8303413;28;20041;-78
2023/03/30 16:49:22;;;;;;;14.25;8.18;;;;;;;;;;8320372;28;20053;-79
2023/03/30 16:53:26;;;;;;;18.98;7.60;;;;;;;;;;8332258;28;20107;-79
2023/03/30 16:57:29;;;;;;;28.58;15.98;;;;;;;;;;8327259;28;20062;-79
2023/03/30 17:01:34;;;;;;;25.45;15.35;;;;;;;;;;8330812;28;20045;-85
2023/03/30 17:05:38;;;;;;;20.80;12.85;;;;;;;;;;8327847;28;20163;-78
2023/03/30 17:09:42;;;;;;;39.58;28.15;;;;;;;;;;8331225;28;20064;-79
2023/03/30 17:13:53;;;;;;;17.70;8.02;;;;;;;;;;8333723;28;20045;-82
2023/03/30 17:18:01;;;;;;;15.35;9.15;;;;;;;;;;8334809;28;20096;-79
2023/03/30 17:22:06;;;;;;;15.80;7.50;;;;;;;;;;8309891;28;20068;-89
2023/03/30 17:26:11;;;;;;;20.70;8.40;;;;;;;;;;8311966;28;20405;-79
2023/03/30 17:30:22;;;;;;;19.98;11.30;;;;;;;;;;8325232;28;20049;-78
2023/03/30 17:34:30;;;;;;;16.30;9.75;;;;;;;;;;8322031;28;20407;-81
2023/03/30 17:38:35;;;;;;;15.98;6.97;;;;;;;;;;8330683;28;20049;-79
2023/03/30 17:42:39;;;;;;;17.35;12.35;;;;;;;;;;8307535;28;20486;-85
2023/03/30 17:46:44;;;;;;;16.25;7.47;;;;;;;;;;8323172;28;20060;-79
2023/03/30 17:50:50;;;;;;;15.68;7.55;;;;;;;;;;8326329;28;20050;-90
2023/03/30 17:54:55;;;;;;;33.38;16.27;;;;;;;;;;8328245;28;20045;-79
2023/03/30 17:59:03;;;;;;;33.15;19.70;;;;;;;;;;8332469;28;20045;-79
2023/03/30 18:03:08;;;;;;;17.65;8.40;;;;;;;;;;8320033;28;20041;-79
2023/03/30 18:07:17;;;;;;;20.85;13.77;;;;;;;;;;8332578;28;20042;-79
2023/03/30 18:11:23;;;;;;;16.45;8.98;;;;;;;;;;8314523;28;20394;-80
2023/03/30 18:15:29;;;;;;;14.75;7.13;;;;;;;;;;8331021;28;20509;-79
2023/03/30 18:19:34;;;;;;;15.18;9.18;;;;;;;;;;8315531;28;20041;-77
2023/03/30 18:23:40;;;;;;;18.67;8.73;;;;;;;;;;8332497;28;20128;-85
2023/03/30 18:27:45;;;;;;;15.88;6.82;;;;;;;;;;8331136;28;20047;-78
2023/03/30 18:31:50;;;;;;;19.02;7.47;;;;;;;;;;8332422;28;20096;-79
2023/03/30 18:35:57;;;;;;;15.52;7.03;;;;;;;;;;8332486;28;20057;-81
2023/03/30 18:40:05;;;;;;;15.10;6.68;;;;;;;;;;8332631;28;20047;-77
2023/03/30 18:44:11;;;;;;;16.52;6.07;;;;;;;;;;8331405;28;20103;-78
2023/03/30 18:48:18;;;;;;;15.57;7.20;;;;;;;;;;8332284;28;20068;-85
2023/03/30 18:52:23;;;;;;;13.98;6.20;;;;;;;;;;8328298;28;20049;-78
2023/03/30 18:56:32;;;;;;;13.20;6.47;;;;;;;;;;8332311;28;20128;-87
2023/03/30 19:00:37;;;;;;;16.27;7.10;;;;;;;;;;8331627;28;20050;-78
2023/03/30 19:04:45;;;;;;;12.43;6.40;;;;;;;;;;8332020;28;20438;-87
2023/03/30 19:08:50;;;;;;;18.73;8.00;;;;;;;;;;8305466;28;20093;-89
2023/03/30 19:12:57;;;;;;;17.08;7.85;;;;;;;;;;8306561;28;20131;-81
2023/03/30 19:17:01;;;;;;;13.57;5.72;;;;;;;;;;8331398;28;20060;-79
2023/03/30 19:21:05;;;;;;;15.48;7.38;;;;;;;;;;8331767;28;20068;-80
2023/03/30 19:25:12;;;;;;;21.05;9.43;;;;;;;;;;8331823;28;20133;-79
2023/03/30 19:29:19;;;;;;;20.88;10.18;;;;;;;;;;8331084;28;20124;-79
2023/03/30 19:33:24;;;;;;;15.45;8.27;;;;;;;;;;8330753;28;20046;-81
2023/03/30 19:37:28;;;;;;;19.75;11.68;;;;;;;;;;8296081;28;20084;-80
2023/03/30 19:41:32;;;;;;;17.58;10.43;;;;;;;;;;8330783;28;20072;-79
2023/03/30 19:45:52;;;;;;;20.35;11.02;;;;;;;;;;8330714;28;20045;-80
2023/03/30 19:49:56;;;;;;;20.88;12.68;;;;;;;;;;8330470;28;20103;-89
2023/03/30 19:54:00;;;;;;;20.38;9.93;;;;;;;;;;8303587;28;20116;-80
2023/03/30 19:58:06;;;;;;;20.88;11.70;;;;;;;;;;8329923;28;20083;-80
2023/03/30 20:02:16;;;;;;;29.00;14.25;;;;;;;;;;8329549;28;20072;-79
2023/03/30 20:06:20;;;;;;;34.75;15.90;;;;;;;;;;8330027;28;20128;-83
2023/03/30 20:10:26;;;;;;;29.92;15.02;;;;;;;;;;8330245;28;20047;-90
2023/03/30 20:14:30;;;;;;;90.57;38.80;;;;;;;;;;8304221;28;20099;-82
2023/03/30 20:18:35;;;;;;;35.42;16.33;;;;;;;;;;8329085;28;20042;-81
2023/03/30 20:22:56;;;;;;;27.92;15.25;;;;;;;;;;8296916;28;20057;-81
2023/03/30 20:27:00;;;;;;;35.05;16.95;;;;;;;;;;8316474;28;20049;-81
2023/03/30 20:31:06;;;;;;;28.63;16.33;;;;;;;;;;8329711;28;20045;-81
2023/03/30 20:35:11;;;;;;;62.38;29.48;;;;;;;;;;8329057;28;20046;-86
2023/03/30 20:39:15;;;;;;;33.42;18.00;;;;;;;;;;8329459;28;20041;-88
2023/03/30 20:43:18;;;;;;;36.03;20.48;;;;;;;;;;8329235;28;20052;-79
2023/03/30 20:47:24;;;;;;;33.15;19.17;;;;;;;;;;8328757;28;20073;-80
2023/03/30 20:51:30;;;;;;;39.78;16.80;;;;;;;;;;8328707;28;20456;-80
2023/03/30 20:55:33;;;;;;;38.05;20.05;;;;;;;;;;8325987;28;20045;-86
2023/03/30 20:59:36;;;;;;;44.08;23.08;;;;;;;;;;8328933;28;20407;-80
2023/03/30 21:03:40;;;;;;;29.23;16.35;;;;;;;;;;8328858;28;20049;-81
2023/03/30 21:07:45;;;;;;;29.42;17.42;;;;;;;;;;8328752;28;20046;-79
2023/03/30 21:11:48;;;;;;;31.17;16.95;;;;;;;;;;8318253;28;20129;-81
2023/03/30 21:15:56;;;;;;;27.48;15.50;;;;;;;;;;8329444;28;20057;-80
2023/03/30 21:19:59;;;;;;;31.63;16.13;;;;;;;;;;8335057;28;20130;-80
2023/03/30 21:24:04;;;;;;;32.65;18.48;;;;;;;;;;8334202;28;20045;-82
2023/03/30 21:28:07;;;;;;;54.08;25.73;;;;;;;;;;8334755;28;20099;-83
2023/03/30 21:32:10;;;;;;;43.13;22.10;;;;;;;;;;8334242;28;20045;-87
2023/03/30 21:36:13;;;;;;;33.90;18.52;;;;;;;;;;8333715;28;20057;-81
2023/03/30 21:40:18;;;;;;;42.50;21.92;;;;;;;;;;8334180;28;20041;-86
2023/03/30 21:44:21;;;;;;;35.00;20.05;;;;;;;;;;8334054;28;20080;-81
2023/03/30 21:48:24;;;;;;;39.50;20.48;;;;;;;;;;8333785;28;20045;-82
2023/03/30 21:52:28;;;;;;;41.30;21.95;;;;;;;;;;8325969;28;20095;-80
2023/03/30 21:56:32;;;;;;;50.22;23.80;;;;;;;;;;8333188;28;20106;-81
2023/03/30 22:00:35;;;;;;;31.80;16.92;;;;;;;;;;8329743;28;20403;-81
2023/03/30 22:04:38;;;;;;;39.85;19.80;;;;;;;;;;8319042;28;20125;-82
2023/03/30 22:08:41;;;;;;;37.90;18.65;;;;;;;;;;8333323;28;20053;-87
2023/03/30 22:12:46;;;;;;;35.67;20.15;;;;;;;;;;8332734;28;20084;-81
2023/03/30 22:16:48;;;;;;;44.67;23.95;;;;;;;;;;8332396;28;20081;-81
2023/03/30 22:20:52;;;;;;;45.90;20.98;;;;;;;;;;8328844;28;20050;-84
2023/03/30 22:24:54;;;;;;;31.92;17.52;;;;;;;;;;8332687;28;20053;-84
2023/03/30 22:28:59;;;;;;;33.58;19.27;;;;;;;;;;8331433;28;20049;-86
2023/03/30 22:33:02;;;;;;;38.55;20.48;;;;;;;;;;8332621;28;20053;-86
2023/03/30 22:37:05;;;;;;;38.08;20.02;;;;;;;;;;8332163;28;20611;-80
2023/03/30 22:41:09;;;;;;;36.55;19.38;;;;;;;;;;8332217;28;20136;-82
2023/03/30 22:45:14;;;;;;;31.55;18.52;;;;;;;;;;8331628;28;20045;-81
2023/03/30 22:49:17;;;;;;;38.90;20.95;;;;;;;;;;8331447;28;20401;-80
2023/03/30 22:53:20;;;;;;;37.63;19.88;;;;;;;;;;8331241;28;20102;-80
2023/03/30 22:57:23;;;;;;;32.83;18.60;;;;;;;;;;8322029;28;20486;-80
2023/03/30 23:01:30;;;;;;;30.67;18.08;;;;;;;;;;8331579;28;20045;-81
2023/03/30 23:05:33;;;;;;;32.50;17.13;;;;;;;;;;8331180;28;20540;-83
2023/03/30 23:09:37;;;;;;;36.67;18.65;;;;;;;;;;8331025;28;20042;-81
2023/03/30 23:13:40;;;;;;;33.97;16.88;;;;;;;;;;8331054;28;20116;-82
2023/03/30 23:17:46;;;;;;;32.70;18.13;;;;;;;;;;8331418;28;20421;-88
2023/03/30 23:21:49;;;;;;;28.10;16.48;;;;;;;;;;8330528;28;20041;-81
2023/03/30 23:25:52;;;;;;;29.45;16.13;;;;;;;;;;8330567;28;20054;-82
2023/03/30 23:29:55;;;;;;;26.70;15.82;;;;;;;;;;8330532;28;20049;-82
2023/03/30 23:33:59;;;;;;;31.70;16.63;;;;;;;;;;8330218;28;20591;-80
2023/03/30 23:38:03;;;;;;;37.33;17.33;;;;;;;;;;8329401;28;20390;-81
2023/03/30 23:42:06;;;;;;;27.00;15.48;;;;;;;;;;8330286;28;20046;-80
2023/03/30 23:46:09;;;;;;;31.75;16.48;;;;;;;;;;8300734;28;20099;-89
2023/03/30 23:50:14;;;;;;;32.72;17.67;;;;;;;;;;8293061;28;20050;-84
2023/03/30 23:54:17;;;;;;;32.20;17.75;;;;;;;;;;8326972;28;20045;-88
2023/03/30 23:58:20;;;;;;;25.95;13.88;;;;;;;;;;8298759;28;20049;-82
